RJOC(METAR)
05/24 14:00
METAR RJOC 240500Z 26017G27KT 9999 FEW035 26/15 Q1012 RMK 1CU035
A2989=
戻る
トップページへ戻る
IMOC Co,.Ltd.